Time;durP1;ratioP1;P1;durP2;ratioP2;P2;SDS_P1;SDS_P2;PMS_P1;PMS_P2;Temp;Humidity;BMP_temperature;BMP_pressure;BME280_temperature;BME280_humidity;BME280_pressure;Samples;Min_cycle;Max_cycle;Signal;HPM_P1;HPM_P2
2024/01/12 00:01:12;;;;;;;33.00;15.00;;;;;;;-1.17;76.97;101128.63;107195;1256;99081;-62
2024/01/12 00:03:49;;;;;;;32.70;15.20;;;;;;;-1.17;76.81;101121.92;107222;1256;99082;-62
2024/01/12 00:06:17;;;;;;;34.80;15.10;;;;;;;-1.16;76.98;101123.30;107209;1260;113486;-61
2024/01/12 00:08:46;;;;;;;31.20;15.60;;;;;;;-1.19;76.96;101119.51;107233;1256;108552;-63
2024/01/12 00:11:14;;;;;;;36.30;15.50;;;;;;;-1.21;77.14;101127.86;107186;1260;108206;-61
2024/01/12 00:13:43;;;;;;;28.60;14.40;;;;;;;-1.24;77.11;101127.61;107239;1256;99084;-62
2024/01/12 00:16:11;;;;;;;23.40;13.00;;;;;;;-1.25;77.17;101124.29;107247;1257;99138;-64
2024/01/12 00:18:40;;;;;;;31.20;15.30;;;;;;;-1.29;77.45;101136.02;107276;1257;113282;-62
2024/01/12 00:21:08;;;;;;;32.80;15.70;;;;;;;-1.31;77.51;101146.83;107256;1257;108350;-63
2024/01/12 00:23:36;;;;;;;38.00;16.20;;;;;;;-1.32;77.73;101144.06;107234;1257;108193;-63
2024/01/12 00:26:05;;;;;;;36.00;15.70;;;;;;;-1.34;77.98;101145.01;107244;1257;99202;-63
2024/01/12 00:28:33;;;;;;;34.90;15.30;;;;;;;-1.36;77.97;101145.43;107245;1257;99248;-63
2024/01/12 00:31:02;;;;;;;35.80;14.00;;;;;;;-1.39;78.06;101150.64;107237;1259;113041;-64
2024/01/12 00:33:31;;;;;;;32.40;16.00;;;;;;;-1.40;78.22;101156.13;107251;1257;107917;-62
2024/01/12 00:36:00;;;;;;;33.10;16.00;;;;;;;-1.42;78.06;101151.40;107214;1257;108318;-64
2024/01/12 00:38:28;;;;;;;36.90;17.10;;;;;;;-1.42;78.09;101149.83;107235;1257;99283;-61
2024/01/12 00:40:56;;;;;;;31.20;14.70;;;;;;;-1.43;78.04;101148.46;107213;1256;99720;-63
2024/01/12 00:43:24;;;;;;;34.40;15.50;;;;;;;-1.44;77.98;101157.12;107235;1256;112355;-62
2024/01/12 00:45:53;;;;;;;29.20;15.50;;;;;;;-1.44;78.35;101156.95;107227;1257;107761;-63
2024/01/12 00:48:21;;;;;;;28.70;14.20;;;;;;;-1.44;78.01;101162.39;107195;1260;107951;-62
2024/01/12 00:50:50;;;;;;;31.70;15.20;;;;;;;-1.42;77.87;101154.42;107197;1256;99186;-63
2024/01/12 00:53:18;;;;;;;33.00;15.90;;;;;;;-1.40;77.88;101149.77;107222;1261;99729;-63
2024/01/12 00:55:47;;;;;;;34.80;16.00;;;;;;;-1.38;77.67;101141.80;107209;1257;112927;-63
2024/01/12 00:58:16;;;;;;;35.00;15.70;;;;;;;-1.40;77.31;101145.21;107196;1257;108288;-62
2024/01/12 01:00:44;;;;;;;33.00;14.80;;;;;;;-1.40;77.43;101143.80;107196;1260;107093;-61
2024/01/12 01:03:12;;;;;;;34.80;15.00;;;;;;;-1.42;77.42;101146.66;107254;1261;99177;-63
2024/01/12 01:05:41;;;;;;;30.80;14.00;;;;;;;-1.40;77.20;101142.21;107224;1260;99201;-61
2024/01/12 01:08:09;;;;;;;32.40;14.50;;;;;;;-1.37;77.06;101145.63;107170;1257;113781;-63
2024/01/12 01:10:38;;;;;;;34.20;14.70;;;;;;;-1.35;77.22;101143.11;107258;1259;107683;-67
2024/01/12 01:13:06;;;;;;;31.00;14.60;;;;;;;-1.34;77.16;101139.21;107228;1257;107281;-64
2024/01/12 01:15:35;;;;;;;31.40;15.30;;;;;;;-1.34;77.10;101136.38;107164;1257;99199;-63
2024/01/12 01:18:03;;;;;;;35.60;16.50;;;;;;;-1.35;77.01;101133.09;107276;1259;99833;-63
2024/01/12 01:20:35;;;;;;;36.70;17.10;;;;;;;-1.37;76.96;101137.02;107242;1256;112688;-62
2024/01/12 01:23:03;;;;;;;33.40;15.00;;;;;;;-1.38;77.14;101129.83;107234;1256;108151;-63
2024/01/12 01:25:32;;;;;;;31.40;14.70;;;;;;;-1.38;77.02;101127.01;107200;1257;108160;-62
2024/01/12 01:28:01;;;;;;;37.00;15.40;;;;;;;-1.39;77.18;101121.08;107195;1256;99217;-62
2024/01/12 01:30:30;;;;;;;33.70;16.20;;;;;;;-1.39;77.15;101124.77;107235;1262;99201;-62
2024/01/12 01:32:58;;;;;;;36.30;16.60;;;;;;;-1.39;76.92;101122.66;107260;1257;112590;-62
2024/01/12 01:35:27;;;;;;;33.20;16.00;;;;;;;-1.38;77.20;101123.17;107207;1256;108904;-64
2024/01/12 01:37:55;;;;;;;34.60;16.30;;;;;;;-1.37;77.29;101127.17;107227;1257;108953;-63
2024/01/12 01:40:24;;;;;;;34.40;16.00;;;;;;;-1.37;77.18;101132.61;107223;1257;99213;-61
2024/01/12 01:42:52;;;;;;;32.30;15.00;;;;;;;-1.37;77.10;101135.95;107287;1257;99263;-64
2024/01/12 01:45:21;;;;;;;27.90;13.00;;;;;;;-1.36;77.33;101137.89;107264;1256;114032;-62
2024/01/12 01:47:49;;;;;;;34.80;16.10;;;;;;;-1.40;77.41;101132.52;107165;1257;108404;-62
2024/01/12 01:50:18;;;;;;;34.70;16.10;;;;;;;-1.38;77.53;101134.59;107164;1260;108663;-61
2024/01/12 01:52:46;;;;;;;34.90;16.40;;;;;;;-1.39;77.86;101138.13;107245;1258;99066;-64
2024/01/12 01:55:15;;;;;;;31.00;14.10;;;;;;;-1.39;77.81;101132.84;107281;1257;99201;-64
2024/01/12 01:57:45;;;;;;;31.90;16.20;;;;;;;-1.37;77.90;101137.73;107230;1256;113491;-64
2024/01/12 02:00:15;;;;;;;32.70;15.60;;;;;;;-1.38;77.96;101137.23;107221;1256;107803;-63
2024/01/12 02:02:44;;;;;;;33.70;15.80;;;;;;;-1.40;77.76;101130.79;107244;1261;106775;-64
2024/01/12 02:05:14;;;;;;;30.10;15.80;;;;;;;-1.42;78.15;101127.84;107207;1257;99275;-63
2024/01/12 02:07:43;;;;;;;39.40;15.90;;;;;;;-1.44;78.40;101133.17;107276;1257;99073;-63
2024/01/12 02:10:11;;;;;;;38.70;17.70;;;;;;;-1.46;78.74;101125.00;107253;1257;112025;-62
2024/01/12 02:12:39;;;;;;;30.60;15.60;;;;;;;-1.46;78.51;101127.45;107242;1257;110002;-62
2024/01/12 02:15:09;;;;;;;41.20;17.50;;;;;;;-1.48;78.57;101125.73;107214;1259;108259;-62
2024/01/12 02:17:38;;;;;;;33.70;15.90;;;;;;;-1.49;78.76;101124.02;107239;1256;99267;-63
2024/01/12 02:20:07;;;;;;;31.60;16.00;;;;;;;-1.52;79.06;101129.56;107241;1257;99151;-64
2024/01/12 02:22:35;;;;;;;33.20;17.70;;;;;;;-1.52;79.13;101129.23;107214;1256;112763;-62
2024/01/12 02:25:05;;;;;;;36.70;16.60;;;;;;;-1.55;79.08;101130.56;107181;1258;107367;-62
2024/01/12 02:27:33;;;;;;;35.90;18.50;;;;;;;-1.57;79.26;101132.36;107209;1257;107274;-63
2024/01/12 02:30:02;;;;;;;35.00;15.80;;;;;;;-1.57;79.22;101134.83;107199;1257;99214;-62
2024/01/12 02:32:31;;;;;;;33.90;16.70;;;;;;;-1.56;79.60;101140.23;107258;1257;99884;-63
2024/01/12 02:35:00;;;;;;;36.20;17.80;;;;;;;-1.56;79.74;101141.66;107259;1257;113242;-62
2024/01/12 02:37:28;;;;;;;41.00;19.10;;;;;;;-1.54;79.63;101145.48;107276;1257;107292;-62
2024/01/12 02:39:57;;;;;;;38.00;17.90;;;;;;;-1.52;79.69;101140.81;107260;1257;108040;-64
2024/01/12 02:42:25;;;;;;;35.50;17.50;;;;;;;-1.49;79.53;101146.04;107252;1256;99180;-64
2024/01/12 02:44:53;;;;;;;42.60;17.40;;;;;;;-1.51;79.45;101145.17;107264;1257;99736;-64
2024/01/12 02:47:23;;;;;;;40.80;18.30;;;;;;;-1.53;79.50;101142.80;107216;1257;113046;-63
2024/01/12 02:49:51;;;;;;;36.20;18.30;;;;;;;-1.56;79.40;101143.96;107226;1257;108084;-64
2024/01/12 02:52:19;;;;;;;38.40;19.20;;;;;;;-1.57;79.41;101144.16;107211;1259;107879;-63
2024/01/12 02:54:48;;;;;;;33.40;19.00;;;;;;;-1.57;79.20;101145.56;107246;1258;99182;-63
2024/01/12 02:57:16;;;;;;;40.50;18.80;;;;;;;-1.56;79.15;101150.10;107278;1255;100979;-62
2024/01/12 02:59:45;;;;;;;44.20;20.00;;;;;;;-1.56;78.91;101148.70;107222;1257;112497;-63
2024/01/12 03:02:13;;;;;;;41.70;18.90;;;;;;;-1.57;78.72;101154.71;107259;1257;108351;-63
2024/01/12 03:04:41;;;;;;;42.10;20.30;;;;;;;-1.58;78.52;101159.52;107252;1257;108783;-62
2024/01/12 03:07:10;;;;;;;43.90;20.80;;;;;;;-1.59;78.59;101159.71;107244;1257;99316;-61
2024/01/12 03:09:39;;;;;;;42.00;19.90;;;;;;;-1.60;78.38;101161.85;107274;1257;99083;-61
2024/01/12 03:12:07;;;;;;;40.40;19.20;;;;;;;-1.59;78.43;101165.34;107230;1257;112949;-64
2024/01/12 03:14:36;;;;;;;40.00;19.10;;;;;;;-1.60;78.49;101167.29;107251;1257;108235;-64
2024/01/12 03:17:04;;;;;;;38.80;18.50;;;;;;;-1.60;78.68;101165.36;107228;1257;107145;-63
2024/01/12 03:19:32;;;;;;;42.70;21.20;;;;;;;-1.57;78.55;101169.14;107234;1258;99080;-66
2024/01/12 03:22:01;;;;;;;40.20;18.90;;;;;;;-1.53;77.93;101173.61;107200;1260;99208;-64
2024/01/12 03:24:29;;;;;;;42.40;19.30;;;;;;;-1.52;78.26;101174.45;107199;1262;112517;-63
2024/01/12 03:26:57;;;;;;;41.90;20.10;;;;;;;-1.53;77.88;101175.02;107152;1257;108274;-65
2024/01/12 03:29:26;;;;;;;40.50;20.00;;;;;;;-1.54;78.00;101177.48;107243;1257;108206;-63
2024/01/12 03:31:54;;;;;;;41.00;19.00;;;;;;;-1.54;77.88;101176.08;107215;1259;99189;-64
2024/01/12 03:34:23;;;;;;;43.10;19.50;;;;;;;-1.56;78.10;101176.84;107229;1259;99739;-64
2024/01/12 03:36:52;;;;;;;41.70;19.80;;;;;;;-1.57;77.69;101170.36;107217;1257;112541;-64
2024/01/12 03:39:20;;;;;;;52.00;20.40;;;;;;;-1.58;77.69;101167.39;107259;1257;108516;-63
2024/01/12 03:41:48;;;;;;;41.40;19.50;;;;;;;-1.58;77.53;101172.70;107226;1257;108325;-62
2024/01/12 03:44:17;;;;;;;37.40;19.20;;;;;;;-1.60;77.77;101173.44;107233;1260;99172;-63
2024/01/12 03:46:45;;;;;;;42.90;20.00;;;;;;;-1.61;77.62;101179.80;107238;1260;99809;-63
2024/01/12 03:49:14;;;;;;;42.20;19.00;;;;;;;-1.62;77.67;101181.44;107225;1260;113098;-62
2024/01/12 03:51:43;;;;;;;43.60;19.00;;;;;;;-1.62;77.55;101184.97;107223;1260;108480;-62
2024/01/12 03:54:12;;;;;;;41.60;20.80;;;;;;;-1.63;77.56;101187.60;107100;1257;108604;-64
2024/01/12 03:56:41;;;;;;;40.90;19.80;;;;;;;-1.62;77.68;101189.51;107268;1260;99795;-63
2024/01/12 03:59:11;;;;;;;46.80;19.70;;;;;;;-1.61;77.52;101194.74;107206;1260;99748;-62
2024/01/12 04:01:46;;;;;;;39.50;19.40;;;;;;;-1.58;77.74;101190.27;107235;1257;111735;-62
2024/01/12 04:04:14;;;;;;;45.80;19.40;;;;;;;-1.55;77.34;101199.33;107237;1257;108873;-64
2024/01/12 04:06:43;;;;;;;45.90;20.00;;;;;;;-1.56;77.68;101198.65;107228;1260;109363;-65
2024/01/12 04:09:13;;;;;;;41.90;19.80;;;;;;;-1.55;77.74;101207.42;107192;1258;99272;-64
2024/01/12 04:11:42;;;;;;;45.30;20.80;;;;;;;-1.54;77.87;101210.92;107234;1261;100406;-64
2024/01/12 04:14:10;;;;;;;43.00;21.10;;;;;;;-1.55;77.83;101213.77;107236;1258;113279;-61
2024/01/12 04:16:39;;;;;;;46.20;22.50;;;;;;;-1.58;77.53;101224.04;107165;1258;109460;-63
2024/01/12 04:19:07;;;;;;;44.30;20.50;;;;;;;-1.59;77.74;101228.46;107226;1257;107792;-63
2024/01/12 04:21:35;;;;;;;43.10;20.80;;;;;;;-1.58;77.62;101231.60;107235;1257;99359;-63
2024/01/12 04:24:04;;;;;;;44.10;22.10;;;;;;;-1.58;77.67;101231.27;107269;1260;99214;-64
2024/01/12 04:26:33;;;;;;;48.20;24.40;;;;;;;-1.58;77.88;101230.02;107287;1257;113073;-64
2024/01/12 04:29:01;;;;;;;42.80;20.80;;;;;;;-1.57;77.79;101229.13;107296;1257;109258;-62
2024/01/12 04:31:29;;;;;;;42.10;21.00;;;;;;;-1.58;77.63;101230.57;107232;1259;108138;-62
2024/01/12 04:33:58;;;;;;;47.40;22.20;;;;;;;-1.62;77.93;101231.54;107260;1257;99270;-63
2024/01/12 04:36:26;;;;;;;56.10;24.70;;;;;;;-1.64;77.93;101233.38;107287;1259;99180;-62
2024/01/12 04:38:55;;;;;;;47.80;21.20;;;;;;;-1.66;78.00;101242.94;107250;1257;112703;-63
2024/01/12 04:41:23;;;;;;;50.20;22.60;;;;;;;-1.67;77.95;101243.66;107239;1257;107886;-62
2024/01/12 04:43:51;;;;;;;40.40;21.10;;;;;;;-1.66;78.08;101246.61;107264;1257;108664;-62
2024/01/12 04:46:20;;;;;;;38.10;20.30;;;;;;;-1.63;78.06;101246.90;107205;1260;99177;-62
2024/01/12 04:48:48;;;;;;;39.30;20.40;;;;;;;-1.59;78.05;101255.58;107085;1261;99084;-64
2024/01/12 04:51:18;;;;;;;42.30;20.30;;;;;;;-1.55;77.98;101260.56;107241;1260;112167;-65
2024/01/12 04:53:46;;;;;;;42.40;21.60;;;;;;;-1.52;78.02;101259.41;107251;1260;107448;-63
2024/01/12 04:56:16;;;;;;;35.10;16.80;;;;;;;-1.51;78.05;101266.04;107038;1258;108545;-64
2024/01/12 04:58:44;;;;;;;46.10;22.40;;;;;;;-1.50;77.94;101271.14;107055;1258;99206;-64
2024/01/12 05:01:13;;;;;;;43.90;20.60;;;;;;;-1.51;78.00;101272.02;107229;1257;99741;-63
2024/01/12 05:03:45;;;;;;;47.40;21.00;;;;;;;-1.52;77.51;101276.10;107215;1257;113215;-62
2024/01/12 05:06:13;;;;;;;45.50;23.00;;;;;;;-1.51;77.76;101284.34;107245;1257;107919;-62
2024/01/12 05:08:42;;;;;;;46.90;21.30;;;;;;;-1.49;77.91;101295.92;107210;1256;109155;-63
2024/01/12 05:11:10;;;;;;;44.40;20.10;;;;;;;-1.52;77.65;101303.20;107240;1256;99185;-63
2024/01/12 05:13:38;;;;;;;40.60;20.00;;;;;;;-1.51;77.84;101315.50;107246;1258;99064;-63
2024/01/12 05:16:07;;;;;;;29.70;13.50;;;;;;;-1.52;78.24;101338.91;107273;1256;112854;-64
2024/01/12 05:18:35;;;;;;;15.60;7.70;;;;;;;-1.64;76.74;101357.57;107231;1259;107436;-64
2024/01/12 05:21:03;;;;;;;8.90;4.30;;;;;;;-1.82;75.28;101373.34;107231;1257;108769;-64
2024/01/12 05:23:32;;;;;;;6.50;3.20;;;;;;;-1.96;74.41;101385.84;107092;1257;99108;-63
2024/01/12 05:26:00;;;;;;;6.00;2.60;;;;;;;-2.09;73.79;101393.55;107242;1257;99295;-63
2024/01/12 05:28:29;;;;;;;4.10;2.40;;;;;;;-2.17;73.64;101401.51;107204;1260;111990;-64
2024/01/12 05:30:57;;;;;;;5.20;2.70;;;;;;;-2.24;73.29;101407.81;107252;1258;108580;-64
2024/01/12 05:33:26;;;;;;;7.10;2.40;;;;;;;-2.28;73.14;101413.38;107236;1257;108122;-65
2024/01/12 05:35:54;;;;;;;5.70;2.70;;;;;;;-2.37;72.88;101426.26;107252;1257;99326;-65
2024/01/12 05:38:23;;;;;;;4.10;2.40;;;;;;;-2.45;72.90;101438.20;107262;1258;100901;-63
2024/01/12 05:40:51;;;;;;;5.80;2.60;;;;;;;-2.50;73.07;101442.19;107249;1257;113635;-63
2024/01/12 05:43:20;;;;;;;6.60;2.00;;;;;;;-2.55;73.24;101447.39;107241;1257;107856;-64
2024/01/12 05:45:48;;;;;;;9.00;2.30;;;;;;;-2.59;73.00;101455.91;107252;1257;107567;-63
2024/01/12 05:48:16;;;;;;;7.30;3.50;;;;;;;-2.63;73.30;101458.11;107264;1258;99265;-62
2024/01/12 05:50:45;;;;;;;12.20;2.60;;;;;;;-2.65;73.14;101456.05;107227;1259;99192;-63
2024/01/12 05:53:13;;;;;;;8.90;2.60;;;;;;;-2.67;73.03;101455.73;107295;1257;112289;-63
2024/01/12 05:55:41;;;;;;;7.50;3.10;;;;;;;-2.73;72.80;101454.64;107241;1258;108803;-63
2024/01/12 05:58:10;;;;;;;17.70;6.80;;;;;;;-2.79;72.83;101456.19;107245;1257;107815;-63
2024/01/12 06:00:38;;;;;;;17.30;5.60;;;;;;;-2.81;72.95;101456.40;107177;1257;99186;-63
2024/01/12 06:03:06;;;;;;;12.70;4.60;;;;;;;-2.83;72.82;101466.45;107256;1257;99093;-64
2024/01/12 06:05:35;;;;;;;9.10;3.50;;;;;;;-2.81;72.63;101482.39;107212;1257;114451;-62
2024/01/12 06:08:04;;;;;;;4.90;1.70;;;;;;;-2.83;71.83;101481.55;107258;1257;108332;-62
2024/01/12 06:10:33;;;;;;;4.00;1.40;;;;;;;-2.85;72.37;101490.55;107222;1260;107303;-62
2024/01/12 06:13:02;;;;;;;4.50;2.00;;;;;;;-2.83;72.56;101504.02;107182;1260;99185;-63
2024/01/12 06:15:30;;;;;;;7.00;1.80;;;;;;;-2.82;71.72;101504.17;107240;1257;99713;-63
2024/01/12 06:17:59;;;;;;;3.40;1.60;;;;;;;-2.84;71.66;101517.02;107244;1256;112507;-62
2024/01/12 06:20:28;;;;;;;8.30;2.20;;;;;;;-2.84;71.80;101518.79;107261;1257;107437;-62
2024/01/12 06:22:57;;;;;;;4.90;1.90;;;;;;;-2.88;70.86;101532.72;107273;1256;105996;-65
2024/01/12 06:25:25;;;;;;;5.00;1.70;;;;;;;-2.96;71.06;101537.09;107216;1256;99393;-65
2024/01/12 06:27:53;;;;;;;6.00;1.40;;;;;;;-3.01;71.00;101537.56;107287;1260;99108;-65
2024/01/12 06:30:22;;;;;;;4.50;0.90;;;;;;;-3.08;69.67;101541.02;107247;1257;112732;-64
2024/01/12 06:32:50;;;;;;;11.00;1.70;;;;;;;-3.19;68.44;101552.61;107236;1257;108311;-64
2024/01/12 06:35:19;;;;;;;2.70;1.10;;;;;;;-3.26;67.70;101561.36;107211;1260;108442;-62
2024/01/12 06:37:48;;;;;;;6.00;1.10;;;;;;;-3.34;67.67;101572.55;107247;1256;99199;-63
2024/01/12 06:40:17;;;;;;;2.00;1.00;;;;;;;-3.39;66.40;101580.20;107255;1259;99285;-62
2024/01/12 06:42:45;;;;;;;1.60;1.00;;;;;;;-3.43;66.50;101575.70;107252;1256;112242;-63
2024/01/12 06:45:13;;;;;;;1.30;0.80;;;;;;;-3.47;65.60;101570.84;107270;1257;107061;-61
2024/01/12 06:47:43;;;;;;;7.30;1.00;;;;;;;-3.52;64.30;101566.91;107209;1259;107139;-62
2024/01/12 06:50:12;;;;;;;2.00;1.30;;;;;;;-3.57;64.58;101572.08;107217;1257;99255;-63
2024/01/12 06:52:41;;;;;;;1.40;1.20;;;;;;;-3.57;64.79;101574.17;107267;1256;99220;-66
2024/01/12 06:55:09;;;;;;;2.40;1.20;;;;;;;-3.56;64.84;101583.45;107287;1257;112486;-62
2024/01/12 06:57:37;;;;;;;2.00;1.20;;;;;;;-3.53;64.86;101590.06;107254;1257;107809;-63
2024/01/12 07:00:06;;;;;;;9.50;1.40;;;;;;;-3.53;63.32;101597.77;107246;1257;108606;-64
2024/01/12 07:02:35;;;;;;;1.30;1.00;;;;;;;-3.54;63.25;101599.91;107235;1260;99310;-64
2024/01/12 07:05:04;;;;;;;1.00;0.70;;;;;;;-3.54;62.55;101608.15;107294;1257;99747;-62
2024/01/12 07:07:32;;;;;;;8.00;1.60;;;;;;;-3.54;62.83;101613.41;107305;1257;113652;-63
2024/01/12 07:10:00;;;;;;;1.70;1.10;;;;;;;-3.53;62.51;101618.83;107216;1256;108367;-63
2024/01/12 07:12:29;;;;;;;5.50;1.00;;;;;;;-3.53;61.79;101624.61;107219;1259;107585;-64
2024/01/12 07:14:57;;;;;;;5.10;1.20;;;;;;;-3.56;61.77;101625.37;107229;1257;99198;-64
2024/01/12 07:17:26;;;;;;;1.20;0.90;;;;;;;-3.59;61.08;101631.20;107188;1256;99244;-64
2024/01/12 07:19:55;;;;;;;3.00;1.40;;;;;;;-3.65;59.95;101641.46;107221;1257;112733;-63
2024/01/12 07:22:23;;;;;;;9.50;1.60;;;;;;;-3.69;60.06;101649.94;107192;1257;107759;-62
2024/01/12 07:24:52;;;;;;;5.10;1.60;;;;;;;-3.70;59.87;101652.58;107273;1257;108555;-62
2024/01/12 07:27:20;;;;;;;11.20;0.90;;;;;;;-3.73;57.95;101657.52;107171;1257;99080;-65
2024/01/12 07:29:48;;;;;;;5.30;1.00;;;;;;;-3.78;56.92;101657.96;107223;1256;99076;-62
2024/01/12 07:32:17;;;;;;;3.10;1.10;;;;;;;-3.81;56.65;101665.20;107208;1257;113267;-62
2024/01/12 07:34:45;;;;;;;17.50;6.80;;;;;;;-3.80;56.45;101671.48;107184;1256;107907;-62
2024/01/12 07:37:14;;;;;;;3.90;1.70;;;;;;;-3.81;57.33;101675.52;107254;1260;107862;-65
2024/01/12 07:39:42;;;;;;;4.50;1.20;;;;;;;-3.76;58.19;101681.59;107149;1257;99240;-64
2024/01/12 07:42:11;;;;;;;6.60;1.40;;;;;;;-3.69;57.55;101683.59;107279;1256;99271;-64
2024/01/12 07:44:39;;;;;;;1.80;1.20;;;;;;;-3.66;56.14;101695.30;107238;1259;112615;-64
2024/01/12 07:47:08;;;;;;;3.90;1.70;;;;;;;-3.66;55.54;101703.02;107214;1256;108341;-64
2024/01/12 07:49:37;;;;;;;3.30;1.40;;;;;;;-3.65;55.10;101717.38;107143;1260;108238;-64
2024/01/12 07:52:07;;;;;;;7.10;1.50;;;;;;;-3.67;53.62;101723.36;107194;1257;99189;-64
2024/01/12 07:54:37;;;;;;;4.90;2.20;;;;;;;-3.78;53.33;101732.63;107154;1256;99234;-64
2024/01/12 07:57:06;;;;;;;2.60;1.20;;;;;;;-3.86;53.35;101732.04;107161;1260;112683;-64
2024/01/12 07:59:34;;;;;;;3.30;0.90;;;;;;;-3.99;51.29;101731.33;107225;1257;109645;-63
2024/01/12 08:02:03;;;;;;;2.30;1.10;;;;;;;-4.12;51.04;101731.48;107162;1256;108290;-64
2024/01/12 08:04:31;;;;;;;4.40;1.30;;;;;;;-4.21;51.22;101737.89;107179;1257;99178;-63
2024/01/12 08:07:01;;;;;;;1.60;0.90;;;;;;;-4.33;51.31;101744.15;107200;1257;99827;-63
2024/01/12 08:09:30;;;;;;;2.70;0.90;;;;;;;-4.43;52.69;101753.90;107160;1257;113337;-64
2024/01/12 08:11:58;;;;;;;5.90;1.30;;;;;;;-4.50;52.38;101760.09;107213;1256;107460;-64
2024/01/12 08:14:27;;;;;;;5.10;1.30;;;;;;;-4.57;53.20;101765.42;107238;1257;107964;-63
2024/01/12 08:16:56;;;;;;;2.20;1.20;;;;;;;-4.59;53.29;101772.44;107202;1257;99269;-63
2024/01/12 08:19:25;;;;;;;5.40;1.00;;;;;;;-4.61;52.92;101787.87;107296;1256;99105;-64
2024/01/12 08:21:53;;;;;;;3.80;1.20;;;;;;;-4.69;52.92;101791.25;107209;1256;112789;-64
2024/01/12 08:24:24;;;;;;;3.30;1.60;;;;;;;-4.67;54.03;101791.06;107247;1259;107544;-64
2024/01/12 08:26:52;;;;;;;7.10;1.40;;;;;;;-4.64;53.60;101796.63;107246;1257;108319;-63
2024/01/12 08:29:21;;;;;;;9.10;1.50;;;;;;;-4.64;53.28;101803.99;107161;1257;99166;-65
2024/01/12 08:31:51;;;;;;;4.50;1.20;;;;;;;-4.61;53.58;101802.04;107154;1260;99199;-63
2024/01/12 08:34:20;;;;;;;12.10;2.10;;;;;;;-4.51;53.75;101803.53;107295;1257;113301;-62
2024/01/12 08:36:48;;;;;;;4.40;1.20;;;;;;;-4.43;53.03;101806.43;107256;1257;108493;-63
2024/01/12 08:39:18;;;;;;;19.70;11.50;;;;;;;-4.43;52.77;101808.01;107237;1256;108310;-63
2024/01/12 08:41:46;;;;;;;8.50;1.70;;;;;;;-4.39;52.47;101806.56;107317;1256;99195;-62
2024/01/12 08:44:15;;;;;;;2.30;1.20;;;;;;;-4.28;52.27;101803.49;106603;1257;924604;-62
2024/01/12 08:46:44;;;;;;;11.60;2.60;;;;;;;-4.09;52.44;101806.45;107302;1256;112964;-62
2024/01/12 08:49:12;;;;;;;9.10;1.70;;;;;;;-3.86;51.97;101807.24;107263;1257;107340;-64
2024/01/12 08:51:41;;;;;;;5.30;1.60;;;;;;;-3.71;49.77;101807.73;107274;1256;108522;-64
2024/01/12 08:54:09;;;;;;;1.70;1.30;;;;;;;-3.40;49.23;101811.91;107254;1256;99196;-65
2024/01/12 08:56:38;;;;;;;2.70;1.50;;;;;;;-3.30;51.07;101814.41;107273;1257;99070;-63
2024/01/12 08:59:06;;;;;;;3.50;1.60;;;;;;;-3.17;51.29;101813.52;107257;1257;113659;-63
2024/01/12 09:01:34;;;;;;;14.20;1.70;;;;;;;-3.02;50.99;101821.20;107320;1257;108602;-64
2024/01/12 09:04:03;;;;;;;3.50;1.70;;;;;;;-2.89;50.68;101818.72;107078;1256;108138;-64
2024/01/12 09:06:32;;;;;;;3.00;1.30;;;;;;;-2.87;49.73;101816.23;107277;1256;99190;-63
2024/01/12 09:09:01;;;;;;;2.90;1.70;;;;;;;-2.90;48.58;101816.45;107081;1255;99847;-62
2024/01/12 09:11:29;;;;;;;7.20;1.30;;;;;;;-2.92;48.91;101817.54;107293;1256;114355;-63
2024/01/12 09:13:57;;;;;;;5.20;2.10;;;;;;;-2.92;48.87;101823.86;107333;1257;107522;-62
2024/01/12 09:16:25;;;;;;;3.50;1.30;;;;;;;-2.91;49.24;101822.27;107273;1256;108947;-63
2024/01/12 09:18:54;;;;;;;6.70;1.60;;;;;;;-2.88;49.12;101815.89;107172;1260;99316;-63
2024/01/12 09:21:24;;;;;;;3.00;1.60;;;;;;;-2.91;49.04;101818.40;107162;1260;99759;-63
2024/01/12 09:23:52;;;;;;;2.10;1.20;;;;;;;-3.08;48.23;101819.73;107208;1257;112864;-63
2024/01/12 09:26:21;;;;;;;6.60;1.90;;;;;;;-3.24;48.44;101825.02;107216;1257;108335;-63
2024/01/12 09:28:49;;;;;;;10.50;2.30;;;;;;;-3.38;48.33;101830.13;107256;1257;108220;-62
2024/01/12 09:31:18;;;;;;;4.60;2.00;;;;;;;-3.53;48.57;101834.00;107245;1257;99185;-62
2024/01/12 09:33:46;;;;;;;6.90;2.50;;;;;;;-3.69;49.79;101837.88;107305;1257;99711;-64
2024/01/12 09:36:15;;;;;;;9.50;2.40;;;;;;;-3.77;50.39;101843.76;107300;1256;114330;-65
2024/01/12 09:38:44;;;;;;;10.30;3.00;;;;;;;-3.53;50.47;101846.11;107302;1257;108325;-64
2024/01/12 09:41:24;;;;;;;7.70;2.30;;;;;;;-2.77;49.43;101840.30;107088;1257;107884;-64
2024/01/12 09:43:59;;;;;;;5.50;2.50;;;;;;;-2.36;49.09;101835.40;107290;1255;99182;-64
2024/01/12 09:46:30;;;;;;;5.30;2.40;;;;;;;-2.32;48.91;101838.52;107208;1257;98220;-64
2024/01/12 09:48:58;;;;;;;14.10;7.60;;;;;;;-2.39;48.07;101841.61;107349;1257;112581;-63
2024/01/12 09:51:27;;;;;;;5.00;2.10;;;;;;;-2.50;48.39;101846.73;107337;1256;108825;-63
2024/01/12 09:53:56;;;;;;;8.50;2.20;;;;;;;-2.56;47.35;101854.90;107298;1257;106986;-64
2024/01/12 09:56:24;;;;;;;11.50;2.40;;;;;;;-2.62;47.57;101852.17;107281;1256;99197;-62
2024/01/12 09:59:07;;;;;;;8.20;2.50;;;;;;;-2.71;47.35;101858.46;107315;1256;99340;-63
2024/01/12 10:01:35;;;;;;;5.30;2.20;;;;;;;-2.91;48.10;101859.30;107256;1256;112583;-63
2024/01/12 10:04:04;;;;;;;13.50;2.80;;;;;;;-2.81;47.34;101862.30;107110;1258;107624;-65
2024/01/12 10:06:32;;;;;;;10.50;2.90;;;;;;;-1.80;47.73;101865.30;107195;1257;108303;-63
2024/01/12 10:09:02;;;;;;;6.50;2.60;;;;;;;-0.69;47.48;101860.13;107316;1256;99263;-63
2024/01/12 10:11:30;;;;;;;6.80;1.70;;;;;;;-0.49;44.96;101870.21;107367;1255;99072;-63
2024/01/12 10:13:59;;;;;;;3.80;1.90;;;;;;;-0.80;43.43;101871.13;107310;1256;112672;-63
2024/01/12 10:16:30;;;;;;;4.20;1.90;;;;;;;-1.14;42.78;101876.66;107343;1259;107588;-64
2024/01/12 10:18:59;;;;;;;4.80;1.80;;;;;;;-1.00;43.79;101877.04;107123;1256;108602;-63
2024/01/12 10:21:28;;;;;;;2.40;1.90;;;;;;;-0.07;42.44;101862.97;107159;1257;99216;-63
2024/01/12 10:24:06;;;;;;;3.40;2.00;;;;;;;0.79;40.99;101855.44;107079;1262;101435;-64
2024/01/12 10:26:35;;;;;;;7.70;2.00;;;;;;;1.37;39.87;101857.19;107207;1256;112807;-64
2024/01/12 10:29:04;;;;;;;3.80;1.70;;;;;;;1.97;39.46;101850.06;107305;1256;107946;-64
2024/01/12 10:31:39;;;;;;;2.50;1.70;;;;;;;2.24;39.59;101850.88;107297;1257;107883;-65
2024/01/12 10:34:11;;;;;;;6.70;1.70;;;;;;;2.82;39.05;101850.66;107163;1256;99193;-64
2024/01/12 10:36:49;;;;;;;5.60;2.30;;;;;;;3.41;37.30;101848.52;107050;1257;99758;-64
2024/01/12 10:39:19;;;;;;;7.70;1.80;;;;;;;3.75;36.88;101855.61;107139;1257;112609;-64
2024/01/12 10:41:49;;;;;;;2.90;1.70;;;;;;;4.26;36.69;101855.70;107122;1256;107489;-64
2024/01/12 10:44:22;;;;;;;9.20;2.00;;;;;;;4.73;36.85;101852.71;107130;1256;107758;-62
2024/01/12 10:46:57;;;;;;;3.70;1.90;;;;;;;5.13;35.01;101849.77;107173;1257;99191;-63
2024/01/12 10:49:26;;;;;;;8.50;2.40;;;;;;;5.52;34.60;101846.75;107123;1257;99086;-63
2024/01/12 10:52:01;;;;;;;9.50;2.10;;;;;;;5.75;34.39;101837.79;107110;1257;112237;-64
2024/01/12 10:54:38;;;;;;;6.40;2.20;;;;;;;6.19;35.46;101832.48;107122;1257;107586;-64
2024/01/12 10:57:09;;;;;;;3.30;1.90;;;;;;;6.58;33.44;101821.91;107108;1261;108151;-65
2024/01/12 10:59:39;;;;;;;3.10;1.80;;;;;;;6.93;32.09;101819.77;107152;1260;99332;-63
2024/01/12 11:02:11;;;;;;;3.00;1.70;;;;;;;7.00;30.31;101818.46;107097;1256;99763;-63
2024/01/12 11:04:41;;;;;;;4.10;2.00;;;;;;;7.02;30.35;101819.98;107174;1260;113554;-62
2024/01/12 11:07:10;;;;;;;7.90;2.40;;;;;;;7.07;30.04;101822.91;107158;1260;109120;-63
2024/01/12 11:09:39;;;;;;;5.50;2.40;;;;;;;7.23;29.80;101822.34;107123;1257;108297;-64
2024/01/12 11:12:09;;;;;;;5.50;2.30;;;;;;;7.35;31.35;101824.34;107119;1257;99823;-64